Time;durP1;ratioP1;P1;durP2;ratioP2;P2;SDS_P1;SDS_P2;PMS_P1;PMS_P2;Temp;Humidity;BMP_temperature;BMP_pressure;BME280_temperature;BME280_humidity;BME280_pressure;Samples;Min_cycle;Max_cycle;Signal;HPM_P1;HPM_P2
2021/01/11 00:00:25;;;;;;;15.15;7.85;;;-6.10;99.90;;;;;;5032101;28;20041;-82
2021/01/11 00:02:52;;;;;;;18.67;8.27;;;-6.10;99.90;;;;;;5049751;28;20045;-82
2021/01/11 00:05:18;;;;;;;20.30;8.90;;;-6.20;99.90;;;;;;5035166;28;20045;-82
2021/01/11 00:07:45;;;;;;;20.70;9.32;;;-6.20;99.90;;;;;;5035168;28;20037;-83
2021/01/11 00:10:12;;;;;;;20.33;8.65;;;-6.20;99.90;;;;;;5052469;28;20033;-82
2021/01/11 00:12:43;;;;;;;16.67;9.00;;;-6.20;99.90;;;;;;5040574;28;20029;-83
2021/01/11 00:15:12;;;;;;;16.25;8.43;;;-6.10;99.90;;;;;;5033572;28;20045;-82
2021/01/11 00:17:39;;;;;;;16.15;8.07;;;-6.30;99.90;;;;;;5046951;28;20033;-82
2021/01/11 00:20:07;;;;;;;16.75;8.80;;;-6.20;99.90;;;;;;5032942;28;20041;-82
2021/01/11 00:22:34;;;;;;;20.38;9.52;;;-6.10;99.90;;;;;;5041949;28;20037;-83
2021/01/11 00:25:01;;;;;;;21.98;9.55;;;-6.00;99.90;;;;;;5034556;28;20046;-82
2021/01/11 00:27:27;;;;;;;16.75;7.95;;;-6.10;99.90;;;;;;5024483;28;20390;-84
2021/01/11 00:29:53;;;;;;;21.60;9.00;;;-6.00;99.90;;;;;;5023802;28;20429;-82
2021/01/11 00:32:20;;;;;;;18.17;8.93;;;-6.20;99.90;;;;;;5052063;28;20033;-83
2021/01/11 00:34:46;;;;;;;19.63;9.25;;;-6.20;99.90;;;;;;5050022;28;20041;-83
2021/01/11 00:37:13;;;;;;;16.80;9.38;;;-6.20;99.90;;;;;;5047110;28;20034;-82
2021/01/11 00:39:39;;;;;;;19.48;9.85;;;-6.20;99.90;;;;;;5026943;28;20037;-83
2021/01/11 00:42:06;;;;;;;18.67;8.82;;;-6.20;99.90;;;;;;5039379;28;20053;-82
2021/01/11 00:44:32;;;;;;;21.33;8.43;;;-6.20;99.90;;;;;;5050865;28;20051;-83
2021/01/11 00:47:02;;;;;;;19.80;9.68;;;-6.20;99.90;;;;;;5053215;28;20105;-82
2021/01/11 00:49:29;;;;;;;20.73;9.07;;;-6.10;99.90;;;;;;5048397;28;20057;-85
2021/01/11 00:51:55;;;;;;;23.13;10.63;;;-6.10;99.90;;;;;;5049879;28;20100;-83
2021/01/11 00:54:23;;;;;;;22.15;10.88;;;-6.20;99.90;;;;;;5051426;28;20052;-82
2021/01/11 00:56:51;;;;;;;19.17;9.93;;;-6.20;99.90;;;;;;5047685;28;20040;-82
2021/01/11 00:59:37;;;;;;;20.73;10.32;;;-6.30;99.90;;;;;;5037322;28;20045;-82
2021/01/11 01:02:04;;;;;;;19.70;9.27;;;-6.40;99.90;;;;;;5040848;28;20175;-83
2021/01/11 01:04:30;;;;;;;19.40;10.82;;;-6.30;99.90;;;;;;5032593;28;20040;-85
2021/01/11 01:07:03;;;;;;;20.30;9.98;;;-6.40;99.90;;;;;;5034630;28;20471;-82
2021/01/11 01:09:30;;;;;;;20.98;10.63;;;-6.50;99.90;;;;;;5031806;28;20037;-85
2021/01/11 01:11:56;;;;;;;20.38;10.43;;;-6.40;99.90;;;;;;5032743;28;20037;-82
2021/01/11 01:14:22;;;;;;;22.00;9.07;;;-6.30;99.90;;;;;;5032627;28;20049;-81
2021/01/11 01:16:49;;;;;;;22.40;10.60;;;-6.40;99.90;;;;;;5030718;28;20045;-81
2021/01/11 01:19:15;;;;;;;20.95;9.93;;;-6.40;99.90;;;;;;5039622;28;20036;-82
2021/01/11 01:21:41;;;;;;;21.83;10.57;;;-6.40;99.90;;;;;;5047030;28;20045;-81
2021/01/11 01:24:07;;;;;;;22.95;11.05;;;-6.40;99.90;;;;;;5031026;28;20387;-82
2021/01/11 01:26:34;;;;;;;21.70;12.10;;;-6.40;99.90;;;;;;5046328;28;20038;-83
2021/01/11 01:29:00;;;;;;;21.15;10.25;;;-6.40;99.90;;;;;;5031590;28;20068;-82
2021/01/11 01:31:26;;;;;;;24.35;12.13;;;-6.30;99.90;;;;;;5046188;28;20040;-81
2021/01/11 01:33:53;;;;;;;21.20;10.98;;;-6.20;99.90;;;;;;5034564;28;20377;-82
2021/01/11 01:36:19;;;;;;;19.27;9.95;;;-6.40;99.90;;;;;;5033166;28;20048;-82
2021/01/11 01:38:46;;;;;;;17.55;9.45;;;-6.40;99.90;;;;;;5035544;28;20033;-82
2021/01/11 01:41:13;;;;;;;27.92;11.55;;;-6.30;99.90;;;;;;5030446;28;20475;-81
2021/01/11 01:43:39;;;;;;;25.48;12.25;;;-6.50;99.90;;;;;;5032637;28;20048;-81
2021/01/11 01:46:07;;;;;;;28.00;11.68;;;-6.60;99.90;;;;;;5040391;28;20037;-81
2021/01/11 01:48:34;;;;;;;24.95;10.90;;;-6.50;99.90;;;;;;5043838;28;20033;-85
2021/01/11 01:51:00;;;;;;;25.30;11.82;;;-6.50;99.90;;;;;;5035708;28;20045;-82
2021/01/11 01:53:26;;;;;;;24.58;10.43;;;-6.40;99.90;;;;;;5035621;28;20426;-81
2021/01/11 01:55:54;;;;;;;19.27;10.75;;;-6.30;99.90;;;;;;5043185;28;20255;-82
2021/01/11 01:58:21;;;;;;;18.08;8.80;;;-6.30;99.90;;;;;;5040414;28;20382;-82
2021/01/11 02:00:48;;;;;;;20.10;9.48;;;-6.20;99.90;;;;;;5051146;28;20033;-82
2021/01/11 02:03:14;;;;;;;18.40;9.48;;;-6.30;99.90;;;;;;5035943;28;20037;-82
2021/01/11 02:05:40;;;;;;;24.83;10.57;;;-6.50;99.90;;;;;;5048689;28;20037;-82
2021/01/11 02:08:20;;;;;;;19.55;9.45;;;-6.60;99.90;;;;;;5054420;28;20037;-82
2021/01/11 02:11:11;;;;;;;20.90;10.15;;;-6.70;99.90;;;;;;5039432;28;20040;-82
2021/01/11 02:14:06;;;;;;;17.75;9.55;;;-6.70;99.90;;;;;;5036767;28;20045;-82
2021/01/11 02:16:53;;;;;;;20.65;9.27;;;-6.70;99.90;;;;;;5035448;28;20049;-85
2021/01/11 02:19:51;;;;;;;24.67;10.20;;;-6.60;99.90;;;;;;5019979;28;20052;-81
2021/01/11 02:22:24;;;;;;;20.88;10.85;;;-6.60;99.90;;;;;;5018059;28;20042;-82
2021/01/11 02:25:19;;;;;;;27.50;10.95;;;-6.60;99.90;;;;;;5041348;28;20052;-82
2021/01/11 02:27:52;;;;;;;25.58;10.38;;;-6.60;99.90;;;;;;4991908;28;20519;-82
2021/01/11 02:30:34;;;;;;;22.02;10.10;;;-6.60;99.90;;;;;;5052589;28;20045;-82
2021/01/11 02:33:12;;;;;;;20.10;9.52;;;-6.60;99.90;;;;;;5053790;28;20045;-81
2021/01/11 02:35:47;;;;;;;19.98;9.63;;;-6.50;99.90;;;;;;5049808;28;20514;-81
2021/01/11 02:38:16;;;;;;;20.05;8.45;;;-6.60;99.90;;;;;;5017653;28;20049;-82
2021/01/11 02:40:43;;;;;;;19.08;9.43;;;-6.60;99.90;;;;;;5045238;28;20044;-82
2021/01/11 02:43:10;;;;;;;23.13;10.50;;;-6.60;99.90;;;;;;5035787;28;20083;-82
2021/01/11 02:45:36;;;;;;;20.08;8.10;;;-6.70;99.90;;;;;;5036235;28;20044;-82
2021/01/11 02:48:22;;;;;;;19.95;8.70;;;-6.70;99.90;;;;;;5051587;28;20048;-82
2021/01/11 02:51:09;;;;;;;16.98;8.50;;;-6.70;99.90;;;;;;5034965;28;20030;-81
2021/01/11 02:53:46;;;;;;;17.58;8.43;;;-6.80;99.90;;;;;;5024523;28;20042;-82
2021/01/11 02:56:29;;;;;;;18.52;8.32;;;-6.80;99.90;;;;;;5033495;28;20044;-80
2021/01/11 02:59:08;;;;;;;20.20;9.18;;;-6.70;99.90;;;;;;5044724;28;20040;-81
2021/01/11 03:01:42;;;;;;;16.70;8.50;;;-6.80;99.90;;;;;;5028081;28;20048;-84
2021/01/11 03:04:17;;;;;;;19.13;8.25;;;-6.80;99.90;;;;;;5017809;28;20041;-83
2021/01/11 03:06:56;;;;;;;26.30;10.70;;;-6.90;99.90;;;;;;5022149;28;20086;-82
2021/01/11 03:09:23;;;;;;;18.45;9.00;;;-7.00;99.90;;;;;;5034855;28;20033;-82
2021/01/11 03:11:49;;;;;;;17.58;8.02;;;-7.00;99.90;;;;;;5046245;28;20041;-82
2021/01/11 03:14:15;;;;;;;19.63;10.00;;;-6.90;99.90;;;;;;5039552;28;20021;-81
2021/01/11 03:16:42;;;;;;;21.55;9.68;;;-6.80;99.90;;;;;;5049217;28;20471;-82
2021/01/11 03:19:08;;;;;;;21.35;10.80;;;-6.80;99.90;;;;;;5045127;28;20056;-82
2021/01/11 03:21:35;;;;;;;24.92;11.65;;;-6.80;99.90;;;;;;5049250;28;20030;-84
2021/01/11 03:24:01;;;;;;;19.58;10.13;;;-6.80;99.90;;;;;;5044123;28;20025;-82
2021/01/11 03:26:28;;;;;;;21.13;10.70;;;-6.90;99.90;;;;;;5046697;28;20072;-82
2021/01/11 03:28:54;;;;;;;17.85;10.07;;;-6.90;99.90;;;;;;5032738;28;20613;-82
2021/01/11 03:31:22;;;;;;;19.00;9.55;;;-6.90;99.90;;;;;;5042877;28;20398;-82
2021/01/11 03:33:48;;;;;;;21.38;9.32;;;-6.90;99.90;;;;;;5035526;28;20394;-81
2021/01/11 03:36:16;;;;;;;20.65;11.07;;;-6.90;99.90;;;;;;5035551;28;20057;-82
2021/01/11 03:38:43;;;;;;;21.63;11.10;;;-6.80;99.90;;;;;;5053514;28;20479;-82
2021/01/11 03:41:09;;;;;;;20.65;10.43;;;-6.80;99.90;;;;;;5062114;28;20466;-80
2021/01/11 03:43:40;;;;;;;25.10;12.02;;;-6.80;99.90;;;;;;5055380;28;20056;-85
2021/01/11 03:46:08;;;;;;;23.98;11.95;;;-6.80;99.90;;;;;;5046994;28;20041;-83
2021/01/11 03:48:34;;;;;;;23.85;11.43;;;-6.80;99.90;;;;;;5045213;28;20045;-83
2021/01/11 03:51:01;;;;;;;20.10;11.55;;;-6.70;99.90;;;;;;5037067;28;20038;-81
2021/01/11 03:53:27;;;;;;;22.15;11.02;;;-6.70;99.90;;;;;;5048180;28;20033;-80
2021/01/11 03:55:54;;;;;;;22.98;11.30;;;-6.80;99.90;;;;;;5033872;28;20045;-81
2021/01/11 03:58:20;;;;;;;23.02;10.57;;;-6.70;99.90;;;;;;5033903;28;20037;-81
2021/01/11 04:00:50;;;;;;;26.80;11.88;;;-6.80;99.90;;;;;;5032945;28;20387;-81
2021/01/11 04:03:17;;;;;;;20.15;10.52;;;-6.80;99.90;;;;;;5050535;28;20045;-81
2021/01/11 04:05:45;;;;;;;20.50;9.90;;;-6.70;99.90;;;;;;5028081;28;20065;-80
2021/01/11 04:08:11;;;;;;;22.20;10.07;;;-6.80;99.90;;;;;;5053638;28;20033;-81
2021/01/11 04:10:38;;;;;;;19.15;9.20;;;-6.90;99.90;;;;;;5052875;28;20037;-83
2021/01/11 04:13:04;;;;;;;21.25;9.70;;;-6.80;99.90;;;;;;5034582;28;20041;-82
2021/01/11 04:15:31;;;;;;;19.13;9.05;;;-6.90;99.90;;;;;;5035723;28;20040;-81
2021/01/11 04:17:58;;;;;;;20.45;9.15;;;-6.90;99.90;;;;;;5031619;28;20041;-82
2021/01/11 04:20:25;;;;;;;16.48;9.60;;;-7.00;99.90;;;;;;5034559;28;20081;-81
2021/01/11 04:22:51;;;;;;;19.05;10.05;;;-7.00;99.90;;;;;;5052194;28;20037;-81
2021/01/11 04:25:18;;;;;;;18.92;9.65;;;-7.00;99.90;;;;;;5018031;28;20139;-81
2021/01/11 04:27:44;;;;;;;22.50;10.30;;;-7.00;99.90;;;;;;5051943;28;20048;-80
2021/01/11 04:30:11;;;;;;;23.63;11.27;;;-7.00;99.90;;;;;;5049309;28;20042;-81
2021/01/11 04:32:40;;;;;;;16.85;8.15;;;-7.00;99.90;;;;;;5033771;28;20467;-86
2021/01/11 04:35:12;;;;;;;22.63;9.88;;;-6.90;99.90;;;;;;5046398;28;20052;-81
2021/01/11 04:37:42;;;;;;;21.30;10.32;;;-6.90;99.90;;;;;;5034698;28;20123;-82
2021/01/11 04:40:10;;;;;;;19.17;9.90;;;-6.90;99.90;;;;;;5033877;28;20033;-81
2021/01/11 04:43:00;;;;;;;24.42;10.98;;;-6.90;99.90;;;;;;5032042;28;20045;-84
2021/01/11 04:45:26;;;;;;;19.45;10.15;;;-7.00;99.90;;;;;;5034310;28;20045;-81
2021/01/11 04:47:57;;;;;;;20.08;9.60;;;-7.10;99.90;;;;;;5031281;28;20026;-81
2021/01/11 04:50:25;;;;;;;19.17;9.57;;;-7.00;99.90;;;;;;5045477;28;20383;-81
2021/01/11 04:52:51;;;;;;;24.05;10.57;;;-7.00;99.90;;;;;;5032833;28;20132;-81
2021/01/11 04:55:19;;;;;;;20.75;10.52;;;-7.10;99.90;;;;;;5038304;28;20060;-81
2021/01/11 04:57:56;;;;;;;19.85;10.95;;;-7.20;99.90;;;;;;5054893;28;20040;-82
2021/01/11 05:00:25;;;;;;;25.05;10.45;;;-7.10;99.90;;;;;;5045367;28;20374;-81
2021/01/11 05:03:01;;;;;;;24.00;11.60;;;-7.00;99.90;;;;;;5040589;28;20045;-81
2021/01/11 05:05:30;;;;;;;22.10;10.95;;;-7.00;99.90;;;;;;5047329;28;20052;-81
2021/01/11 05:07:56;;;;;;;19.30;10.27;;;-7.10;99.90;;;;;;5031455;28;20033;-81
2021/01/11 05:10:28;;;;;;;22.13;10.82;;;-7.10;99.90;;;;;;5031040;28;20049;-82
2021/01/11 05:13:04;;;;;;;20.52;10.55;;;-7.20;99.90;;;;;;5045819;28;20036;-82
2021/01/11 05:15:33;;;;;;;21.05;11.45;;;-7.30;99.90;;;;;;5039318;28;20040;-83
2021/01/11 05:18:00;;;;;;;21.05;11.50;;;-7.30;99.90;;;;;;5051212;28;20028;-82
2021/01/11 05:20:32;;;;;;;22.98;10.75;;;-7.20;99.90;;;;;;5034585;28;20029;-83
2021/01/11 05:23:07;;;;;;;23.20;11.25;;;-7.30;99.90;;;;;;5033934;28;20141;-81
2021/01/11 05:25:37;;;;;;;19.38;10.27;;;-7.20;99.90;;;;;;5032963;28;20045;-83
2021/01/11 05:28:14;;;;;;;23.90;10.57;;;-7.30;99.90;;;;;;5036875;28;20029;-82
2021/01/11 05:30:45;;;;;;;19.25;10.02;;;-7.20;99.90;;;;;;5055227;28;20037;-83
2021/01/11 05:33:21;;;;;;;19.30;10.40;;;-7.20;99.90;;;;;;5046301;28;20041;-82
2021/01/11 05:36:08;;;;;;;23.13;11.57;;;-7.00;99.90;;;;;;5035012;28;20049;-82
2021/01/11 05:38:39;;;;;;;22.30;10.90;;;-7.00;99.90;;;;;;5047154;28;20046;-82
2021/01/11 05:41:19;;;;;;;21.38;11.77;;;-7.10;99.90;;;;;;5037475;28;20033;-82
2021/01/11 05:44:08;;;;;;;24.40;11.07;;;-7.00;99.90;;;;;;5048189;28;20053;-83
2021/01/11 05:46:35;;;;;;;23.90;11.57;;;-7.10;99.90;;;;;;5041145;28;20033;-82
2021/01/11 05:49:06;;;;;;;22.85;11.20;;;-7.00;99.90;;;;;;5047953;28;20056;-82
2021/01/11 05:51:34;;;;;;;24.92;12.60;;;-7.10;99.90;;;;;;5047240;28;20037;-83
2021/01/11 05:54:00;;;;;;;21.98;10.40;;;-7.10;99.90;;;;;;5042706;28;20028;-82
2021/01/11 05:56:27;;;;;;;21.30;10.93;;;-7.20;99.90;;;;;;5029485;28;20418;-82
2021/01/11 05:59:22;;;;;;;23.20;10.23;;;-7.20;99.90;;;;;;5041537;28;20045;-82
2021/01/11 06:01:49;;;;;;;22.23;11.05;;;-7.20;99.90;;;;;;5036964;28;20054;-82
2021/01/11 06:04:16;;;;;;;17.33;9.10;;;-7.30;99.90;;;;;;5040407;28;20037;-82
2021/01/11 06:06:42;;;;;;;19.20;10.18;;;-7.40;99.90;;;;;;5018241;28;20041;-83
2021/01/11 06:09:09;;;;;;;22.73;11.02;;;-7.40;99.90;;;;;;5042061;28;20052;-82
2021/01/11 06:11:39;;;;;;;18.55;10.07;;;-7.30;99.90;;;;;;5051715;28;20033;-81
2021/01/11 06:14:05;;;;;;;19.23;11.27;;;-7.30;99.90;;;;;;5035934;28;20021;-81
2021/01/11 06:16:32;;;;;;;24.00;11.63;;;-7.30;99.90;;;;;;5036380;28;20299;-79
2021/01/11 06:19:00;;;;;;;23.85;11.93;;;-7.30;99.90;;;;;;5035826;28;20029;-86
2021/01/11 06:21:26;;;;;;;19.67;8.98;;;-7.20;99.90;;;;;;5057845;28;20475;-86
2021/01/11 06:24:15;;;;;;;25.27;11.98;;;-7.20;99.90;;;;;;5059877;28;20048;-88
2021/01/11 06:26:43;;;;;;;20.48;10.85;;;-7.20;99.90;;;;;;5052555;28;20037;-82
2021/01/11 06:29:45;;;;;;;21.83;11.13;;;-7.30;99.90;;;;;;5054191;28;20037;-84
2021/01/11 06:32:22;;;;;;;23.55;10.48;;;-7.20;99.90;;;;;;5029124;28;20044;-83
2021/01/11 06:34:48;;;;;;;22.55;10.35;;;-7.40;99.90;;;;;;5045424;28;20037;-84
2021/01/11 06:37:20;;;;;;;25.38;11.77;;;-7.40;99.90;;;;;;5035554;28;20045;-82
2021/01/11 06:39:47;;;;;;;22.42;10.77;;;-7.40;99.90;;;;;;5050681;28;20037;-82
2021/01/11 06:42:14;;;;;;;22.73;11.00;;;-7.30;99.90;;;;;;5047054;28;20513;-85
2021/01/11 06:44:46;;;;;;;22.25;12.00;;;-7.20;99.90;;;;;;5035548;28;20046;-83
2021/01/11 06:47:26;;;;;;;25.58;11.57;;;-7.20;99.90;;;;;;5046047;28;20044;-87
2021/01/11 06:49:53;;;;;;;23.70;12.95;;;-7.20;99.90;;;;;;5048698;28;20395;-84
2021/01/11 06:52:34;;;;;;;29.45;13.90;;;-7.40;99.90;;;;;;5049171;28;20029;-85
2021/01/11 06:55:11;;;;;;;32.80;15.25;;;-7.40;99.90;;;;;;5043088;28;20041;-85
2021/01/11 06:57:38;;;;;;;31.30;15.07;;;-7.20;99.90;;;;;;5049436;28;20387;-84
2021/01/11 07:00:10;;;;;;;29.25;15.43;;;-7.30;99.90;;;;;;5034817;28;20034;-85
2021/01/11 07:02:43;;;;;;;34.63;15.95;;;-7.20;99.90;;;;;;5034024;28;20403;-86
2021/01/11 07:05:37;;;;;;;41.72;16.42;;;-7.20;99.90;;;;;;5033843;28;20041;-86
2021/01/11 07:08:12;;;;;;;31.98;15.60;;;-7.20;99.90;;;;;;5036557;28;20025;-86
2021/01/11 07:10:43;;;;;;;27.25;13.82;;;-7.30;99.90;;;;;;5052509;28;20374;-83
2021/01/11 07:13:19;;;;;;;29.10;14.63;;;-7.30;99.90;;;;;;5034816;28;20485;-78
2021/01/11 07:15:51;;;;;;;27.65;14.63;;;-7.20;99.90;;;;;;5033716;28;20049;-79
2021/01/11 07:18:36;;;;;;;31.75;16.45;;;-7.30;99.90;;;;;;5034825;28;20030;-78
2021/01/11 07:21:23;;;;;;;33.42;17.55;;;-7.20;99.90;;;;;;5033185;28;20037;-79
2021/01/11 07:23:51;;;;;;;34.38;16.70;;;-7.20;99.90;;;;;;5031690;28;20060;-78
2021/01/11 07:26:20;;;;;;;27.00;14.68;;;-7.10;99.90;;;;;;5044835;28;20116;-78
2021/01/11 07:28:51;;;;;;;28.92;15.98;;;-7.10;99.90;;;;;;5033262;28;20041;-78
2021/01/11 07:31:20;;;;;;;28.48;14.73;;;-7.10;99.90;;;;;;5033347;28;20032;-77
2021/01/11 07:33:50;;;;;;;27.88;14.63;;;-7.00;99.90;;;;;;5032956;28;20386;-78
2021/01/11 07:36:18;;;;;;;29.75;17.17;;;-7.00;99.90;;;;;;5032169;28;20045;-82
2021/01/11 07:38:44;;;;;;;29.20;16.15;;;-6.90;99.90;;;;;;5033720;28;20033;-78
2021/01/11 07:41:23;;;;;;;37.08;17.63;;;-6.80;99.90;;;;;;5033608;28;20029;-77
2021/01/11 07:43:50;;;;;;;33.13;17.45;;;-6.90;99.90;;;;;;5048446;28;20052;-78
2021/01/11 07:46:23;;;;;;;37.53;19.73;;;-6.90;99.90;;;;;;5033630;28;20044;-78
2021/01/11 07:48:49;;;;;;;33.58;17.25;;;-6.90;99.90;;;;;;5046913;28;20042;-78
2021/01/11 07:51:16;;;;;;;35.00;17.55;;;-6.80;99.90;;;;;;5032105;28;20033;-78
2021/01/11 07:53:42;;;;;;;32.80;16.17;;;-6.70;99.90;;;;;;5048603;28;20036;-78
2021/01/11 07:56:09;;;;;;;27.17;13.25;;;-6.60;99.90;;;;;;5033602;28;20044;-78
2021/01/11 07:58:37;;;;;;;26.25;13.30;;;-6.50;99.90;;;;;;5031990;28;20402;-80
2021/01/11 08:01:05;;;;;;;26.95;14.18;;;-6.50;99.90;;;;;;5032900;28;20040;-81
2021/01/11 08:03:32;;;;;;;32.13;16.88;;;-6.00;99.90;;;;;;5047229;28;20041;-81
2021/01/11 08:06:03;;;;;;;31.60;18.85;;;-5.90;99.90;;;;;;5047293;28;20045;-81
2021/01/11 08:08:32;;;;;;;32.58;14.23;;;-5.90;99.90;;;;;;5033010;28;20034;-81
2021/01/11 08:11:05;;;;;;;48.00;20.40;;;-5.90;99.90;;;;;;5015317;28;20482;-81
2021/01/11 08:13:32;;;;;;;40.25;20.55;;;-5.70;99.90;;;;;;5047320;28;20040;-81
2021/01/11 08:16:12;;;;;;;37.50;20.13;;;-5.70;99.90;;;;;;5051054;28;20112;-81
2021/01/11 08:18:40;;;;;;;46.97;26.55;;;-5.60;99.90;;;;;;5050132;28;20371;-81
2021/01/11 08:21:10;;;;;;;44.15;25.60;;;-5.50;99.90;;;;;;5048457;28;20029;-82
2021/01/11 08:23:38;;;;;;;36.05;18.80;;;-5.20;99.90;;;;;;5050090;28;20355;-81
2021/01/11 08:26:09;;;;;;;36.45;20.88;;;-4.90;99.90;;;;;;5049487;28;20044;-81
2021/01/11 08:28:44;;;;;;;53.15;28.35;;;-4.80;99.90;;;;;;5050014;28;20056;-82
2021/01/11 08:31:21;;;;;;;32.08;17.83;;;-4.70;99.90;;;;;;5040583;28;20033;-78
2021/01/11 08:34:00;;;;;;;29.23;14.73;;;-4.60;99.90;;;;;;5031874;28;20037;-80
2021/01/11 08:36:31;;;;;;;31.98;14.73;;;-4.70;99.90;;;;;;5048043;28;20037;-75
2021/01/11 08:39:16;;;;;;;26.15;15.25;;;-4.60;99.90;;;;;;5032176;28;20430;-80
2021/01/11 08:41:47;;;;;;;27.63;14.45;;;-4.50;99.90;;;;;;5047497;28;20037;-80
2021/01/11 08:44:33;;;;;;;28.17;15.77;;;-4.20;99.90;;;;;;5032455;28;20052;-80
2021/01/11 08:47:04;;;;;;;33.65;18.27;;;-4.00;99.90;;;;;;5037917;28;20045;-84
2021/01/11 08:49:31;;;;;;;39.88;21.08;;;-3.90;99.90;;;;;;5049375;28;20041;-84
2021/01/11 08:52:11;;;;;;;49.45;27.73;;;-3.70;99.90;;;;;;5038922;28;20033;-85
2021/01/11 08:54:39;;;;;;;33.13;20.13;;;-3.50;99.90;;;;;;5044293;28;20425;-86
2021/01/11 08:57:11;;;;;;;38.25;20.55;;;-3.40;99.90;;;;;;5044370;28;20045;-81
2021/01/11 08:59:46;;;;;;;32.53;18.10;;;-3.20;99.90;;;;;;5039129;28;20033;-84
2021/01/11 09:02:29;;;;;;;46.10;21.42;;;-3.20;99.90;;;;;;5049528;28;20052;-82
2021/01/11 09:04:57;;;;;;;42.00;22.38;;;-3.00;99.90;;;;;;5049920;28;20041;-82
2021/01/11 09:07:29;;;;;;;42.45;22.00;;;-3.00;99.90;;;;;;5044925;28;20037;-84
2021/01/11 09:09:56;;;;;;;44.65;20.38;;;-2.80;99.90;;;;;;5036949;28;20026;-85
2021/01/11 09:12:36;;;;;;;31.05;17.48;;;-2.70;99.90;;;;;;5037705;28;20025;-77
2021/01/11 09:15:03;;;;;;;30.63;17.40;;;-2.60;99.90;;;;;;5025722;28;20256;-75
2021/01/11 09:17:32;;;;;;;31.60;17.58;;;-2.50;99.90;;;;;;5036646;28;20042;-84
2021/01/11 09:20:06;;;;;;;30.98;15.48;;;-2.30;99.90;;;;;;5035675;28;20056;-85
2021/01/11 09:22:39;;;;;;;31.85;17.55;;;-2.30;99.90;;;;;;5018762;28;20387;-86
2021/01/11 09:25:14;;;;;;;31.33;16.85;;;-2.20;99.90;;;;;;5039847;28;20048;-85
2021/01/11 09:27:41;;;;;;;30.02;15.30;;;-2.10;99.90;;;;;;5048336;28;20390;-80
2021/01/11 09:30:08;;;;;;;26.48;14.18;;;-2.00;99.90;;;;;;5050129;28;20487;-81
2021/01/11 09:32:36;;;;;;;28.20;16.40;;;-1.90;99.90;;;;;;5049288;28;20355;-79
2021/01/11 09:35:04;;;;;;;29.38;16.27;;;-1.80;99.90;;;;;;5049313;28;20483;-80
2021/01/11 09:37:30;;;;;;;25.83;14.57;;;-1.60;99.90;;;;;;5048659;28;20045;-83
2021/01/11 09:39:57;;;;;;;28.23;15.93;;;-1.50;99.90;;;;;;5034654;28;20033;-80
2021/01/11 09:42:23;;;;;;;28.23;14.95;;;-1.40;99.90;;;;;;5036350;28;20479;-80
2021/01/11 09:44:49;;;;;;;28.35;14.82;;;-1.20;99.90;;;;;;5046030;28;20038;-81
2021/01/11 09:47:15;;;;;;;26.65;15.85;;;-1.20;99.90;;;;;;5034718;28;20368;-78
2021/01/11 09:49:42;;;;;;;28.77;15.48;;;-1.10;99.90;;;;;;5050608;28;20471;-81
2021/01/11 09:52:09;;;;;;;30.15;16.92;;;-1.00;99.90;;;;;;5036017;28;20041;-79
2021/01/11 09:54:35;;;;;;;28.30;16.25;;;-0.90;99.90;;;;;;5040805;28;20025;-84
2021/01/11 09:57:01;;;;;;;29.08;17.05;;;-0.90;99.90;;;;;;5042568;28;20427;-83
2021/01/11 09:59:27;;;;;;;25.63;14.52;;;-0.90;99.90;;;;;;5043131;28;20040;-83
2021/01/11 10:01:54;;;;;;;25.15;14.13;;;-0.90;99.90;;;;;;5047848;28;20029;-83
2021/01/11 10:04:21;;;;;;;28.27;15.13;;;-0.80;99.90;;;;;;5062849;28;20029;-84
2021/01/11 10:06:49;;;;;;;28.42;17.33;;;-0.80;99.90;;;;;;5071091;28;20041;-83
2021/01/11 10:09:19;;;;;;;30.55;17.80;;;-0.80;99.90;;;;;;5059764;28;20040;-82
2021/01/11 10:11:50;;;;;;;28.27;16.95;;;-0.70;99.90;;;;;;5048936;28;20034;-82
2021/01/11 10:14:17;;;;;;;21.77;13.48;;;-0.70;99.90;;;;;;5049303;28;20048;-85
2021/01/11 10:16:44;;;;;;;26.00;14.07;;;-0.70;99.90;;;;;;5078559;28;20059;-85
2021/01/11 10:19:14;;;;;;;26.73;14.25;;;-0.70;99.90;;;;;;5051693;28;20037;-84
2021/01/11 10:21:41;;;;;;;25.58;13.60;;;-0.60;99.90;;;;;;5050148;28;20033;-84
2021/01/11 10:24:08;;;;;;;26.23;14.95;;;-0.70;99.90;;;;;;5065351;28;20047;-83
2021/01/11 10:26:35;;;;;;;26.38;14.57;;;-0.60;99.90;;;;;;5059412;28;20037;-83
2021/01/11 10:29:01;;;;;;;24.73;13.60;;;-0.60;99.90;;;;;;5046344;28;20033;-83
2021/01/11 10:31:28;;;;;;;22.17;13.77;;;-0.50;99.90;;;;;;5042890;28;20044;-83
2021/01/11 10:33:55;;;;;;;25.98;15.68;;;-0.50;99.90;;;;;;5050842;28;20037;-83
2021/01/11 10:36:21;;;;;;;32.00;15.98;;;-0.30;99.90;;;;;;5053150;28;20041;-82
2021/01/11 10:38:47;;;;;;;26.50;16.25;;;-0.20;99.90;;;;;;5041726;28;20036;-83
2021/01/11 10:41:18;;;;;;;24.15;15.00;;;-0.10;99.90;;;;;;5053782;28;20033;-83
2021/01/11 10:43:46;;;;;;;23.25;12.48;;;0.00;99.90;;;;;;5045458;28;20048;-84
2021/01/11 10:46:12;;;;;;;27.00;15.52;;;0.10;99.90;;;;;;5053060;28;20481;-85
2021/01/11 10:48:39;;;;;;;27.08;14.43;;;0.20;99.90;;;;;;5054972;28;20033;-84
2021/01/11 10:51:10;;;;;;;22.92;14.23;;;0.30;99.90;;;;;;5037978;28;20041;-82
2021/01/11 10:53:40;;;;;;;24.13;15.32;;;0.40;99.90;;;;;;5035381;28;20351;-82
2021/01/11 10:56:07;;;;;;;21.70;14.07;;;0.50;99.90;;;;;;5040107;28;20048;-83
2021/01/11 10:58:37;;;;;;;23.83;13.75;;;0.60;99.90;;;;;;5053330;28;20036;-83
2021/01/11 11:01:08;;;;;;;62.03;28.23;;;0.60;99.90;;;;;;5052079;28;20037;-84
2021/01/11 11:03:34;;;;;;;144.00;60.20;;;0.70;99.90;;;;;;5046610;28;20562;-82
2021/01/11 11:06:01;;;;;;;37.28;20.63;;;0.80;99.90;;;;;;5052934;28;20485;-84
2021/01/11 11:08:27;;;;;;;25.65;14.10;;;0.70;99.90;;;;;;5045113;28;20154;-84
2021/01/11 11:10:54;;;;;;;31.35;20.17;;;0.70;99.90;;;;;;5047897;28;20042;-83
2021/01/11 11:13:20;;;;;;;22.70;16.15;;;0.80;99.90;;;;;;5034520;28;20045;-82
2021/01/11 11:15:47;;;;;;;26.13;16.73;;;0.80;99.90;;;;;;5039161;28;20048;-81
2021/01/11 11:18:14;;;;;;;24.90;14.85;;;0.80;99.90;;;;;;5048150;28;20044;-82
2021/01/11 11:20:44;;;;;;;24.13;14.80;;;0.90;99.90;;;;;;5035242;28;20113;-82
2021/01/11 11:23:11;;;;;;;26.23;16.25;;;1.10;99.90;;;;;;5045122;28;20033;-83
2021/01/11 11:25:37;;;;;;;22.88;14.57;;;1.10;99.90;;;;;;5041885;28;20025;-81
2021/01/11 11:28:04;;;;;;;23.05;14.40;;;1.00;99.90;;;;;;5033491;28;20037;-81
2021/01/11 11:30:30;;;;;;;19.40;13.00;;;1.20;99.90;;;;;;5033626;28;20047;-81
2021/01/11 11:32:56;;;;;;;25.42;14.25;;;1.20;99.90;;;;;;5038050;28;20034;-81
2021/01/11 11:35:23;;;;;;;26.50;15.60;;;1.20;99.90;;;;;;5047845;28;20041;-81
2021/01/11 11:37:50;;;;;;;20.17;12.13;;;1.10;99.90;;;;;;5063893;28;20048;-83
2021/01/11 11:40:17;;;;;;;25.65;13.00;;;1.10;99.90;;;;;;5049503;28;20033;-83
2021/01/11 11:42:44;;;;;;;22.13;12.52;;;1.20;99.90;;;;;;5037095;28;20060;-82
2021/01/11 11:45:12;;;;;;;28.65;13.60;;;1.30;99.90;;;;;;5036656;28;20101;-82
2021/01/11 11:47:40;;;;;;;18.77;11.32;;;1.40;99.90;;;;;;5048562;28;20406;-83
2021/01/11 11:50:09;;;;;;;24.75;13.60;;;1.50;99.90;;;;;;5033174;28;20513;-83
2021/01/11 11:52:37;;;;;;;21.70;11.95;;;1.40;99.90;;;;;;5033795;28;20038;-81
2021/01/11 11:55:05;;;;;;;19.27;11.80;;;1.40;99.90;;;;;;5038957;28;20036;-81
2021/01/11 11:57:32;;;;;;;18.27;10.85;;;1.40;99.90;;;;;;5046037;28;20044;-82
2021/01/11 11:59:58;;;;;;;18.85;10.70;;;1.40;99.90;;;;;;5039896;28;20050;-81
2021/01/11 12:02:25;;;;;;;17.15;10.25;;;1.50;99.90;;;;;;5042943;28;20045;-82
2021/01/11 12:04:51;;;;;;;15.98;10.32;;;1.60;99.90;;;;;;5039072;28;20029;-83
2021/01/11 12:07:18;;;;;;;18.67;10.45;;;1.60;99.90;;;;;;5044554;28;20037;-83
2021/01/11 12:09:45;;;;;;;18.08;10.77;;;1.60;99.90;;;;;;5040538;28;20403;-82
2021/01/11 12:12:14;;;;;;;26.17;14.88;;;1.60;99.90;;;;;;5036527;28;20032;-82
2021/01/11 12:14:41;;;;;;;26.42;14.75;;;1.50;99.90;;;;;;5047932;28;20037;-82
2021/01/11 12:17:07;;;;;;;32.40;18.02;;;1.50;99.90;;;;;;5033299;28;20041;-82
2021/01/11 12:19:34;;;;;;;72.00;30.80;;;1.60;99.90;;;;;;5041849;28;20044;-83
2021/01/11 12:22:00;;;;;;;58.90;26.13;;;1.60;99.90;;;;;;5034767;28;20049;-83
2021/01/11 12:24:26;;;;;;;244.27;95.90;;;1.50;99.90;;;;;;5049492;28;20037;-83
2021/01/11 12:26:54;;;;;;;44.15;21.83;;;1.50;99.90;;;;;;5039480;28;20037;-82
2021/01/11 12:29:20;;;;;;;171.25;74.57;;;1.60;99.90;;;;;;5040608;28;20479;-81
2021/01/11 12:31:47;;;;;;;53.33;27.58;;;1.70;99.90;;;;;;5034200;28;20530;-81
2021/01/11 12:34:14;;;;;;;25.58;14.75;;;1.80;99.90;;;;;;5039833;28;20029;-81
2021/01/11 12:36:40;;;;;;;29.45;17.20;;;1.70;99.90;;;;;;5031990;28;20406;-79
2021/01/11 12:39:09;;;;;;;26.15;15.73;;;1.70;99.90;;;;;;5049357;28;20045;-82
2021/01/11 12:41:37;;;;;;;24.95;14.85;;;1.70;99.90;;;;;;5049757;28;20040;-83
2021/01/11 12:44:12;;;;;;;34.53;21.13;;;1.70;99.90;;;;;;5048031;28;20479;-82